Time;durP1;ratioP1;P1;durP2;ratioP2;P2;SDS_P1;SDS_P2;PMS_P1;PMS_P2;Temp;Humidity;BMP_temperature;BMP_pressure;BME280_temperature;BME280_humidity;BME280_pressure;Samples;Min_cycle;Max_cycle;Signal;HPM_P1;HPM_P2
2024/04/07 00:01:20;;;;;;;12.20;1.20;;;18.80;1.00;;;;;;5039077;28;20195;-86
2024/04/07 00:03:46;;;;;;;16.57;1.50;;;18.80;1.00;;;;;;5021471;28;20174;-86
2024/04/07 00:06:11;;;;;;;30.90;1.43;;;18.90;1.00;;;;;;5021546;28;20305;-87
2024/04/07 00:08:37;;;;;;;15.70;1.60;;;19.00;1.00;;;;;;5039046;28;20558;-87
2024/04/07 00:11:03;;;;;;;14.70;1.70;;;19.10;1.00;;;;;;5021612;28;20582;-86
2024/04/07 00:13:30;;;;;;;12.97;1.50;;;19.10;1.00;;;;;;5021280;28;20289;-87
2024/04/07 00:15:56;;;;;;;14.57;1.20;;;19.20;1.00;;;;;;5021389;28;20888;-86
2024/04/07 00:18:22;;;;;;;13.17;1.47;;;19.30;1.00;;;;;;5020745;28;20427;-86
2024/04/07 00:20:47;;;;;;;12.70;1.20;;;19.40;1.00;;;;;;5038978;28;20510;-87
2024/04/07 00:23:13;;;;;;;16.53;1.57;;;19.40;1.00;;;;;;5037963;28;20181;-86
2024/04/07 00:25:39;;;;;;;13.73;1.63;;;19.40;1.00;;;;;;5020631;28;20193;-86
2024/04/07 00:28:06;;;;;;;11.83;1.00;;;19.40;1.00;;;;;;5021607;28;20196;-86
2024/04/07 00:30:32;;;;;;;13.47;1.67;;;19.40;1.00;;;;;;5039635;28;20396;-86
2024/04/07 00:32:57;;;;;;;14.37;1.30;;;19.40;1.00;;;;;;5039859;28;20439;-86
2024/04/07 00:35:23;;;;;;;12.00;1.10;;;19.40;1.00;;;;;;5039470;28;20162;-86
2024/04/07 00:37:49;;;;;;;12.77;1.53;;;19.50;1.00;;;;;;5021931;28;20173;-88
2024/04/07 00:40:14;;;;;;;14.17;1.70;;;19.50;1.00;;;;;;5039056;28;20533;-86
2024/04/07 00:42:40;;;;;;;19.03;1.50;;;19.50;1.00;;;;;;5039128;28;20190;-85
2024/04/07 00:45:08;;;;;;;12.97;0.90;;;19.50;1.00;;;;;;5021848;28;20175;-88
2024/04/07 00:47:34;;;;;;;12.70;1.20;;;19.50;1.00;;;;;;5022039;28;20401;-85
2024/04/07 00:50:02;;;;;;;12.97;1.00;;;19.60;1.00;;;;;;5039769;28;20416;-88
2024/04/07 00:52:27;;;;;;;12.10;1.13;;;19.60;1.00;;;;;;5021178;28;20438;-86
2024/04/07 00:54:53;;;;;;;12.07;1.13;;;19.60;1.00;;;;;;5020935;28;20475;-87
2024/04/07 00:57:19;;;;;;;13.07;1.20;;;19.50;1.00;;;;;;5020817;28;20171;-87
2024/04/07 00:59:46;;;;;;;13.00;1.27;;;19.50;1.00;;;;;;5038101;28;20454;-87
2024/04/07 01:02:14;;;;;;;12.10;1.17;;;19.40;1.00;;;;;;5019624;28;20205;-88
2024/04/07 01:04:39;;;;;;;12.27;1.23;;;19.50;1.00;;;;;;5020843;28;20420;-88
2024/04/07 01:07:05;;;;;;;13.57;1.60;;;19.50;1.00;;;;;;5019861;28;20418;-88
2024/04/07 01:09:34;;;;;;;16.13;1.77;;;19.50;1.00;;;;;;5037910;28;20174;-87
2024/04/07 01:12:10;;;;;;;13.27;1.20;;;19.40;1.00;;;;;;5038099;28;20215;-87
2024/04/07 01:14:36;;;;;;;12.60;1.10;;;19.40;1.00;;;;;;5020466;28;20946;-88
2024/04/07 01:17:02;;;;;;;12.70;1.30;;;19.40;1.00;;;;;;5020303;28;20782;-87
2024/04/07 01:19:31;;;;;;;14.30;1.10;;;19.40;1.00;;;;;;5037784;28;20456;-87
2024/04/07 01:21:56;;;;;;;12.20;0.90;;;19.40;1.00;;;;;;5038665;28;20595;-86
2024/04/07 01:24:22;;;;;;;12.43;1.00;;;19.40;1.00;;;;;;5039611;28;20434;-86
2024/04/07 01:26:47;;;;;;;12.23;1.00;;;19.40;1.00;;;;;;5039521;28;20177;-86
2024/04/07 01:29:13;;;;;;;14.70;1.40;;;19.40;1.00;;;;;;5038830;28;20173;-86
2024/04/07 01:31:39;;;;;;;15.13;1.10;;;19.30;1.00;;;;;;5038868;28;20262;-87
2024/04/07 01:34:04;;;;;;;12.53;1.40;;;19.20;1.00;;;;;;5039475;28;20737;-86
2024/04/07 01:36:30;;;;;;;16.67;2.20;;;19.20;1.00;;;;;;5038900;28;20627;-87
2024/04/07 01:38:56;;;;;;;11.80;1.03;;;19.20;1.00;;;;;;5039302;28;20210;-86
2024/04/07 01:41:21;;;;;;;12.93;1.43;;;19.30;1.00;;;;;;5039781;28;20185;-85
2024/04/07 01:43:47;;;;;;;14.10;1.30;;;19.30;1.00;;;;;;5038828;28;20193;-85
2024/04/07 01:46:13;;;;;;;13.90;1.40;;;19.30;1.00;;;;;;5021221;28;20170;-88
2024/04/07 01:48:40;;;;;;;15.73;1.90;;;19.30;1.00;;;;;;5020491;28;20471;-88
2024/04/07 01:51:07;;;;;;;15.90;1.60;;;19.20;1.00;;;;;;5020248;28;20174;-88
2024/04/07 01:53:33;;;;;;;13.10;1.43;;;19.10;1.00;;;;;;5020002;28;20415;-88
2024/04/07 01:56:01;;;;;;;13.80;1.43;;;19.10;1.00;;;;;;5021057;28;20432;-88
2024/04/07 01:58:27;;;;;;;13.10;1.33;;;19.10;1.00;;;;;;5020976;28;20413;-87
2024/04/07 02:00:54;;;;;;;14.00;1.50;;;19.10;1.00;;;;;;5038820;28;20463;-86
2024/04/07 02:03:23;;;;;;;13.00;1.60;;;19.10;1.00;;;;;;5038493;28;20225;-87
2024/04/07 02:05:49;;;;;;;14.00;1.37;;;19.10;1.00;;;;;;5037801;28;20431;-88
2024/04/07 02:08:15;;;;;;;12.40;1.30;;;19.10;1.00;;;;;;5019266;28;20403;-88
2024/04/07 02:10:49;;;;;;;12.40;1.40;;;19.10;1.00;;;;;;5039397;28;20805;-87
2024/04/07 02:13:14;;;;;;;12.77;1.60;;;19.00;1.00;;;;;;5019605;28;20196;-87
2024/04/07 02:15:40;;;;;;;16.00;1.33;;;19.00;1.00;;;;;;5037566;28;20874;-87
2024/04/07 02:18:06;;;;;;;13.53;1.70;;;19.00;1.00;;;;;;5019486;28;20176;-87
2024/04/07 02:20:32;;;;;;;12.40;1.30;;;19.00;1.00;;;;;;5037482;28;20251;-88
2024/04/07 02:22:57;;;;;;;12.23;1.23;;;19.10;1.00;;;;;;5038475;28;20284;-88
2024/04/07 02:25:23;;;;;;;13.40;1.80;;;19.00;1.00;;;;;;5020391;28;20427;-88
2024/04/07 02:27:49;;;;;;;12.50;1.30;;;19.00;1.00;;;;;;5038456;28;20163;-87
2024/04/07 02:30:15;;;;;;;12.97;1.50;;;19.00;1.00;;;;;;5038628;28;20164;-87
2024/04/07 02:32:40;;;;;;;16.50;2.07;;;19.00;1.00;;;;;;5019257;28;20459;-87
2024/04/07 02:35:06;;;;;;;14.13;1.70;;;19.00;1.00;;;;;;5020254;28;20464;-87
2024/04/07 02:37:32;;;;;;;11.97;1.20;;;19.00;1.00;;;;;;5037233;28;20165;-87
2024/04/07 02:39:59;;;;;;;13.90;1.23;;;19.00;1.00;;;;;;5019458;28;20202;-87
2024/04/07 02:42:25;;;;;;;13.97;1.23;;;19.00;1.00;;;;;;5019671;28;20191;-87
2024/04/07 02:50:21;;;;;;;22.93;1.50;;;19.00;1.00;;;;;;5037889;28;20897;-87
2024/04/07 02:52:47;;;;;;;12.40;1.30;;;19.00;1.00;;;;;;5037123;28;20429;-87
2024/04/07 02:55:13;;;;;;;14.27;1.70;;;19.00;1.00;;;;;;5018705;28;20781;-87
2024/04/07 02:57:38;;;;;;;16.33;1.53;;;19.00;1.00;;;;;;5036577;28;20721;-87
2024/04/07 03:00:05;;;;;;;15.43;1.63;;;19.00;1.00;;;;;;5037038;28;20193;-87
2024/04/07 03:02:31;;;;;;;14.97;1.60;;;19.00;1.00;;;;;;5036681;28;20277;-87
2024/04/07 03:04:56;;;;;;;12.90;1.30;;;19.00;1.00;;;;;;5020449;28;20467;-87
2024/04/07 03:07:22;;;;;;;18.47;1.60;;;19.00;1.00;;;;;;5040846;28;20231;-87
2024/04/07 03:09:54;;;;;;;15.23;2.17;;;19.00;1.00;;;;;;5022701;28;20237;-87
2024/04/07 03:12:19;;;;;;;13.07;1.07;;;19.00;1.00;;;;;;5022469;28;20204;-87
2024/04/07 03:14:45;;;;;;;14.20;1.40;;;18.90;1.00;;;;;;5040505;28;20409;-87
2024/04/07 03:17:11;;;;;;;17.83;1.30;;;18.90;1.00;;;;;;5040106;28;20198;-87
2024/04/07 03:19:36;;;;;;;15.43;1.40;;;18.90;1.00;;;;;;5039640;28;20197;-87
2024/04/07 03:22:02;;;;;;;15.77;2.07;;;18.90;1.00;;;;;;5039670;28;20663;-87
2024/04/07 03:24:31;;;;;;;16.27;1.60;;;18.90;1.00;;;;;;5040182;28;20570;-88
2024/04/07 03:26:56;;;;;;;18.50;2.30;;;18.90;1.00;;;;;;5040318;28;20635;-87
2024/04/07 03:29:22;;;;;;;16.10;1.50;;;18.80;1.00;;;;;;5023216;28;20416;-86
2024/04/07 03:31:47;;;;;;;24.37;1.67;;;18.80;1.00;;;;;;5040160;28;20239;-86
2024/04/07 03:34:13;;;;;;;14.07;1.60;;;18.80;1.00;;;;;;5040731;28;20554;-86
2024/04/07 03:36:39;;;;;;;13.10;1.40;;;18.80;1.00;;;;;;5021621;28;20170;-86
2024/04/07 03:39:04;;;;;;;16.17;2.00;;;18.80;1.00;;;;;;5039810;28;20182;-86
2024/04/07 03:41:30;;;;;;;13.80;1.47;;;18.80;1.00;;;;;;5022239;28;20213;-88
2024/04/07 03:43:56;;;;;;;14.60;2.27;;;18.70;1.00;;;;;;5040910;28;20205;-86
2024/04/07 03:46:21;;;;;;;15.20;1.30;;;18.70;1.00;;;;;;5022309;28;20222;-85
2024/04/07 03:48:47;;;;;;;16.87;2.13;;;18.70;1.00;;;;;;5022427;28;20204;-87
2024/04/07 03:51:13;;;;;;;13.27;1.57;;;18.70;1.00;;;;;;5022029;28;20177;-86
2024/04/07 03:53:38;;;;;;;17.53;1.67;;;18.60;1.00;;;;;;5040742;28;20196;-85
2024/04/07 03:56:04;;;;;;;14.70;1.77;;;18.60;1.00;;;;;;5040144;28;20198;-85
2024/04/07 03:58:31;;;;;;;19.30;2.13;;;18.50;1.00;;;;;;5022118;28;20177;-85
2024/04/07 04:01:00;;;;;;;14.83;1.73;;;18.60;1.00;;;;;;5039378;28;20228;-85
2024/04/07 04:03:26;;;;;;;14.63;1.93;;;18.60;1.00;;;;;;5038980;28;20451;-89
2024/04/07 04:05:59;;;;;;;15.50;1.90;;;18.60;1.00;;;;;;5039060;28;20404;-88
2024/04/07 04:08:25;;;;;;;14.63;1.73;;;18.60;1.00;;;;;;5021208;28;20172;-88
2024/04/07 04:10:51;;;;;;;14.70;1.40;;;18.60;1.00;;;;;;5021557;28;20466;-86
2024/04/07 04:13:17;;;;;;;16.23;1.73;;;18.50;1.00;;;;;;5039000;28;20189;-85
2024/04/07 04:15:43;;;;;;;12.33;1.30;;;18.40;1.00;;;;;;5020931;28;20174;-86
2024/04/07 04:18:10;;;;;;;14.33;1.60;;;18.40;1.00;;;;;;5038722;28;20166;-88
2024/04/07 04:20:42;;;;;;;13.33;1.57;;;18.30;1.00;;;;;;5021263;28;20947;-86
2024/04/07 04:23:08;;;;;;;13.83;1.93;;;18.20;1.00;;;;;;5021474;28;20559;-85
2024/04/07 04:25:37;;;;;;;17.37;2.10;;;18.20;1.00;;;;;;5037809;28;20437;-86
2024/04/07 04:28:03;;;;;;;13.17;1.70;;;18.20;1.00;;;;;;5038867;28;20396;-87
2024/04/07 04:30:29;;;;;;;17.23;1.60;;;18.20;1.00;;;;;;5020985;28;20808;-87
2024/04/07 04:32:54;;;;;;;16.20;2.00;;;18.10;1.00;;;;;;5038263;28;20925;-87
2024/04/07 04:35:20;;;;;;;13.63;1.97;;;18.00;1.00;;;;;;5038528;28;20177;-86
2024/04/07 04:37:46;;;;;;;14.70;2.67;;;18.00;1.00;;;;;;5020874;28;20181;-86
2024/04/07 04:40:11;;;;;;;13.57;2.03;;;17.90;1.00;;;;;;5038286;28;20335;-88
2024/04/07 04:42:38;;;;;;;12.90;1.40;;;17.80;1.00;;;;;;5020984;28;20429;-85
2024/04/07 04:45:07;;;;;;;16.13;1.60;;;17.90;1.00;;;;;;5038604;28;20674;-88
2024/04/07 04:47:33;;;;;;;14.57;1.87;;;17.80;1.00;;;;;;5038655;28;20404;-88
2024/04/07 04:49:59;;;;;;;13.20;1.70;;;17.90;1.00;;;;;;5040290;28;20450;-88
2024/04/07 04:52:27;;;;;;;14.67;1.50;;;17.80;1.00;;;;;;5038969;28;20451;-88
2024/04/07 04:54:53;;;;;;;14.00;1.53;;;17.80;1.00;;;;;;5039253;28;20426;-88
2024/04/07 04:57:18;;;;;;;14.97;2.40;;;17.70;1.00;;;;;;5038649;28;20898;-86
2024/04/07 04:59:44;;;;;;;13.90;1.63;;;17.70;1.00;;;;;;5038314;28;20667;-86
2024/04/07 05:02:10;;;;;;;12.90;1.37;;;17.70;1.00;;;;;;5038729;28;20190;-88
2024/04/07 05:04:36;;;;;;;15.67;1.87;;;17.80;1.00;;;;;;5020878;28;20554;-88
2024/04/07 05:07:04;;;;;;;14.30;1.30;;;17.80;1.00;;;;;;5038224;28;20162;-87
2024/04/07 05:09:30;;;;;;;12.40;1.17;;;17.70;1.00;;;;;;5038054;28;20527;-87
2024/04/07 05:11:55;;;;;;;15.40;1.47;;;17.70;1.00;;;;;;5037554;28;20430;-87
2024/04/07 05:14:21;;;;;;;17.70;1.50;;;17.60;1.00;;;;;;5037774;28;20397;-87
2024/04/07 05:16:47;;;;;;;13.40;1.23;;;17.60;1.00;;;;;;5037867;28;20221;-86
2024/04/07 05:19:12;;;;;;;12.10;1.27;;;17.60;1.00;;;;;;5087345;23;20229;-86
2024/04/07 05:21:38;;;;;;;15.60;0.90;;;17.50;1.00;;;;;;5033934;28;20185;-87
2024/04/07 05:24:05;;;;;;;16.00;1.40;;;17.60;1.00;;;;;;5016253;28;20197;-87
2024/04/07 05:26:30;;;;;;;13.00;1.47;;;17.60;1.00;;;;;;5033869;28;20606;-87
2024/04/07 05:28:56;;;;;;;12.10;0.97;;;17.60;1.00;;;;;;5033312;28;20424;-87
2024/04/07 05:31:22;;;;;;;15.20;1.73;;;17.50;1.00;;;;;;5033933;28;20655;-87
2024/04/07 05:33:48;;;;;;;15.17;1.37;;;17.50;1.00;;;;;;5033771;28;20216;-87
2024/04/07 05:36:15;;;;;;;15.00;1.80;;;17.60;1.00;;;;;;5015986;28;20189;-87
2024/04/07 05:38:42;;;;;;;13.70;1.27;;;17.50;1.00;;;;;;5033943;28;20400;-87
2024/04/07 05:41:08;;;;;;;12.30;1.00;;;17.40;1.00;;;;;;5015802;28;20807;-87
2024/04/07 05:43:34;;;;;;;14.50;1.27;;;17.40;1.00;;;;;;5033882;28;20412;-87
2024/04/07 05:46:04;;;;;;;12.47;1.40;;;17.40;1.00;;;;;;5034030;28;20831;-87
2024/04/07 05:48:31;;;;;;;13.27;1.13;;;17.40;1.00;;;;;;5016131;28;20975;-87
2024/04/07 05:50:58;;;;;;;13.03;1.37;;;17.40;1.00;;;;;;5033406;28;20427;-87
2024/04/07 05:53:23;;;;;;;12.37;1.27;;;17.30;1.00;;;;;;5033657;28;20767;-87
2024/04/07 05:55:49;;;;;;;13.40;1.47;;;17.30;1.00;;;;;;5033401;28;20411;-87
2024/04/07 05:58:15;;;;;;;16.70;1.60;;;17.20;1.00;;;;;;5033356;28;20487;-87
2024/04/07 06:00:41;;;;;;;12.50;0.73;;;17.20;1.00;;;;;;5033550;28;20185;-87
2024/04/07 06:03:07;;;;;;;14.03;1.40;;;17.20;1.00;;;;;;5033148;28;20429;-87
2024/04/07 06:05:36;;;;;;;16.93;1.63;;;17.20;1.00;;;;;;5033494;28;20488;-86
2024/04/07 06:08:02;;;;;;;12.97;1.17;;;17.20;1.00;;;;;;5033226;28;20404;-86
2024/04/07 06:10:28;;;;;;;15.60;1.13;;;17.20;1.00;;;;;;5033177;28;20439;-87
2024/04/07 06:12:55;;;;;;;12.50;0.97;;;17.30;1.00;;;;;;5033124;28;20433;-86
2024/04/07 06:15:28;;;;;;;12.37;0.93;;;17.40;1.00;;;;;;5033124;28;20408;-86
2024/04/07 06:17:54;;;;;;;12.10;0.93;;;17.50;1.00;;;;;;5015395;28;20988;-86
2024/04/07 06:20:20;;;;;;;14.03;1.20;;;17.50;1.00;;;;;;5032844;28;20555;-86
2024/04/07 06:22:45;;;;;;;12.13;1.00;;;17.60;1.00;;;;;;5015256;28;20281;-86
2024/04/07 06:25:14;;;;;;;13.40;1.20;;;17.60;1.00;;;;;;5033857;28;20583;-86
2024/04/07 06:27:42;;;;;;;13.23;1.30;;;17.60;1.00;;;;;;5033280;28;20212;-86
2024/04/07 06:30:09;;;;;;;13.10;1.40;;;17.60;1.00;;;;;;5033247;28;20404;-87
2024/04/07 06:32:34;;;;;;;13.87;1.50;;;17.60;1.00;;;;;;5033462;28;20447;-87
2024/04/07 06:35:00;;;;;;;13.93;1.07;;;17.50;1.00;;;;;;5032911;28;20404;-86
2024/04/07 06:37:26;;;;;;;12.50;1.20;;;17.50;1.00;;;;;;5033180;28;20167;-86
2024/04/07 06:39:52;;;;;;;13.90;1.30;;;17.40;1.00;;;;;;5016854;28;20201;-86
2024/04/07 06:42:30;;;;;;;13.13;1.17;;;17.50;1.00;;;;;;5036916;28;20186;-86
2024/04/07 06:44:57;;;;;;;13.70;1.23;;;17.50;1.00;;;;;;5036905;28;20154;-86
2024/04/07 06:47:23;;;;;;;13.23;1.20;;;17.60;1.00;;;;;;5036788;28;20404;-86
2024/04/07 06:49:54;;;;;;;12.30;1.17;;;17.70;1.00;;;;;;5037014;28;20415;-86
2024/04/07 06:52:20;;;;;;;13.63;1.03;;;17.70;1.00;;;;;;5036642;28;20433;-86
2024/04/07 06:54:46;;;;;;;12.50;1.10;;;17.70;1.00;;;;;;5036738;28;20463;-86
2024/04/07 06:57:14;;;;;;;13.40;1.30;;;17.60;1.00;;;;;;5036672;28;20408;-86
2024/04/07 06:59:40;;;;;;;15.13;1.27;;;17.70;1.00;;;;;;5036780;28;20452;-86
2024/04/07 07:02:06;;;;;;;14.53;1.70;;;17.70;1.00;;;;;;5018689;28;20486;-86
2024/04/07 07:04:31;;;;;;;14.70;1.10;;;17.70;1.00;;;;;;5037063;28;20408;-86
2024/04/07 07:06:57;;;;;;;13.90;1.67;;;17.70;1.00;;;;;;5036457;28;20193;-86
2024/04/07 07:09:23;;;;;;;13.53;1.10;;;17.80;1.00;;;;;;5036470;28;20174;-86
2024/04/07 07:11:48;;;;;;;13.90;1.63;;;17.90;1.00;;;;;;5019278;28;20201;-86
2024/04/07 07:14:14;;;;;;;12.80;1.10;;;18.00;1.00;;;;;;5036649;28;20640;-86
2024/04/07 07:16:40;;;;;;;15.10;1.33;;;18.10;1.00;;;;;;5036576;28;20173;-86
2024/04/07 07:19:06;;;;;;;13.83;1.70;;;18.10;1.00;;;;;;5036083;28;20182;-86
2024/04/07 07:21:32;;;;;;;14.07;1.80;;;18.30;1.00;;;;;;5036110;28;20949;-86
2024/04/07 07:23:57;;;;;;;20.73;1.33;;;18.30;1.00;;;;;;5036316;28;20182;-86
2024/04/07 07:26:23;;;;;;;13.57;1.10;;;18.40;1.00;;;;;;5036414;28;20624;-86
2024/04/07 07:28:48;;;;;;;13.13;1.70;;;18.40;1.00;;;;;;5036133;28;20171;-86
2024/04/07 07:31:15;;;;;;;13.73;1.60;;;18.40;1.00;;;;;;5035869;28;20276;-86
2024/04/07 07:33:43;;;;;;;13.37;1.60;;;18.40;1.00;;;;;;5035954;28;20177;-86
2024/04/07 07:36:18;;;;;;;13.53;1.50;;;18.50;1.00;;;;;;5036374;28;20463;-86
2024/04/07 07:38:45;;;;;;;14.20;1.40;;;18.50;1.00;;;;;;5036541;28;20384;-85
2024/04/07 07:41:11;;;;;;;14.43;1.73;;;18.70;1.00;;;;;;5018525;28;20450;-85
2024/04/07 07:43:37;;;;;;;13.47;1.60;;;18.70;1.00;;;;;;5036469;28;20416;-85
2024/04/07 07:46:02;;;;;;;17.23;2.13;;;18.80;1.00;;;;;;5036894;28;20658;-85
2024/04/07 07:48:31;;;;;;;18.27;2.00;;;18.70;1.00;;;;;;5037010;28;20174;-85
2024/04/07 07:50:57;;;;;;;15.43;1.83;;;18.70;1.00;;;;;;5035742;28;20178;-85
2024/04/07 07:53:22;;;;;;;14.30;1.57;;;18.70;1.00;;;;;;5036631;28;20981;-85
2024/04/07 07:55:49;;;;;;;13.93;1.70;;;18.80;1.00;;;;;;5037200;28;20233;-85
2024/04/07 07:58:17;;;;;;;15.93;1.37;;;18.90;1.00;;;;;;5036507;28;20239;-85
2024/04/07 08:00:42;;;;;;;15.90;2.03;;;19.00;1.00;;;;;;5018894;28;20511;-85
2024/04/07 08:03:08;;;;;;;14.20;1.67;;;19.10;1.00;;;;;;5037750;28;20783;-85
2024/04/07 08:05:34;;;;;;;13.97;1.60;;;19.20;1.00;;;;;;5036658;28;20162;-84
2024/04/07 08:07:59;;;;;;;17.83;2.00;;;19.30;1.00;;;;;;5037203;28;20169;-85
2024/04/07 08:10:26;;;;;;;12.83;1.30;;;19.20;1.00;;;;;;5037191;28;20166;-85
2024/04/07 08:12:52;;;;;;;23.23;1.80;;;19.20;1.00;;;;;;5020177;28;20204;-85
2024/04/07 08:15:18;;;;;;;19.67;1.60;;;19.30;1.00;;;;;;5019432;28;20520;-85
2024/04/07 08:17:43;;;;;;;18.13;2.10;;;19.30;1.00;;;;;;5036710;28;20898;-84
2024/04/07 08:20:09;;;;;;;13.20;1.50;;;19.30;1.00;;;;;;5037145;28;20586;-85
2024/04/07 08:22:35;;;;;;;13.87;1.40;;;19.20;1.00;;;;;;5037978;28;20301;-85
2024/04/07 08:25:00;;;;;;;13.30;1.40;;;19.10;1.00;;;;;;5038445;28;20214;-85
2024/04/07 08:27:26;;;;;;;13.40;1.33;;;19.10;1.00;;;;;;5038563;28;20164;-85
2024/04/07 08:29:52;;;;;;;15.80;1.57;;;19.20;1.00;;;;;;5019534;28;20223;-85
2024/04/07 08:32:17;;;;;;;13.47;1.13;;;19.20;1.00;;;;;;5037190;28;20190;-85
2024/04/07 08:34:43;;;;;;;12.53;0.90;;;19.30;1.00;;;;;;5038001;28;20176;-85
2024/04/07 08:37:09;;;;;;;16.30;1.20;;;19.30;1.00;;;;;;5038500;28;20266;-85
2024/04/07 08:39:37;;;;;;;15.57;1.20;;;19.30;1.00;;;;;;5037240;28;20232;-85
2024/04/07 08:42:04;;;;;;;13.90;1.37;;;19.40;1.00;;;;;;5037823;28;20428;-85
2024/04/07 08:44:33;;;;;;;13.93;1.27;;;19.40;1.00;;;;;;5019625;28;20838;-85
2024/04/07 08:47:02;;;;;;;13.17;1.30;;;19.40;1.00;;;;;;5037972;28;20415;-85
2024/04/07 08:49:29;;;;;;;14.93;1.27;;;19.50;1.00;;;;;;5020738;28;20424;-85
2024/04/07 08:51:56;;;;;;;17.10;1.60;;;19.70;1.00;;;;;;5020168;28;20431;-85
2024/04/07 08:54:22;;;;;;;13.10;1.47;;;19.70;1.00;;;;;;5036881;28;20463;-85
2024/04/07 08:56:49;;;;;;;12.03;1.30;;;19.90;1.00;;;;;;5037539;28;20408;-85
2024/04/07 08:59:18;;;;;;;12.57;0.97;;;20.00;1.00;;;;;;5035462;28;20165;-85
2024/04/07 09:01:45;;;;;;;15.50;1.20;;;20.10;1.00;;;;;;5035179;28;20428;-85
2024/04/07 09:04:14;;;;;;;13.60;1.43;;;20.40;1.00;;;;;;5035995;28;20402;-85
2024/04/07 09:06:41;;;;;;;12.10;1.10;;;20.60;1.00;;;;;;5036550;28;20399;-85
2024/04/07 09:09:07;;;;;;;13.53;1.47;;;20.60;1.00;;;;;;5037577;28;20471;-85
2024/04/07 09:11:37;;;;;;;14.10;1.13;;;20.80;1.00;;;;;;5037797;28;20475;-85
2024/04/07 09:14:05;;;;;;;13.37;1.00;;;20.70;1.00;;;;;;5020908;28;20493;-85
2024/04/07 09:16:31;;;;;;;12.00;1.00;;;20.50;1.00;;;;;;5037898;28;20471;-85
2024/04/07 09:18:58;;;;;;;13.23;1.03;;;20.60;1.00;;;;;;5020198;28;20793;-85
2024/04/07 09:21:23;;;;;;;20.87;3.40;;;20.60;1.00;;;;;;5039808;28;20303;-85
2024/04/07 09:23:53;;;;;;;14.60;1.67;;;20.70;1.00;;;;;;5040620;28;20411;-85
2024/04/07 09:26:20;;;;;;;14.73;1.30;;;20.70;1.00;;;;;;5040393;28;20196;-85
2024/04/07 09:28:46;;;;;;;13.87;1.40;;;20.80;1.00;;;;;;5023093;28;20450;-84
2024/04/07 09:31:12;;;;;;;13.20;1.00;;;20.90;1.00;;;;;;5036765;28;20467;-85
2024/04/07 09:33:38;;;;;;;12.90;1.13;;;20.60;1.00;;;;;;5037723;28;20503;-85
2024/04/07 09:36:04;;;;;;;11.53;0.80;;;20.60;1.00;;;;;;5019567;28;20420;-84
2024/04/07 09:38:30;;;;;;;11.80;1.00;;;20.70;1.00;;;;;;5036187;28;20206;-85
2024/04/07 09:40:57;;;;;;;12.10;1.00;;;20.80;1.00;;;;;;5018007;28;20479;-86
2024/04/07 09:43:30;;;;;;;12.00;1.10;;;20.70;1.00;;;;;;5036390;28;20426;-85
2024/04/07 09:45:56;;;;;;;12.70;0.87;;;20.70;1.00;;;;;;5036211;28;20396;-85
2024/04/07 09:48:25;;;;;;;11.50;1.00;;;20.70;1.00;;;;;;5035934;28;20404;-85
2024/04/07 09:50:58;;;;;;;16.60;0.90;;;20.80;1.00;;;;;;5036383;28;20435;-85
2024/04/07 09:53:35;;;;;;;13.40;1.10;;;20.90;1.00;;;;;;5020041;28;20413;-85
2024/04/07 09:56:03;;;;;;;19.33;1.37;;;20.90;1.00;;;;;;5036855;28;20399;-85
2024/04/07 09:58:30;;;;;;;14.00;1.00;;;20.90;1.00;;;;;;5019152;28;20484;-85
2024/04/07 10:00:57;;;;;;;12.87;0.90;;;20.90;1.00;;;;;;5036566;28;20506;-85
2024/04/07 10:03:23;;;;;;;13.50;1.20;;;21.10;1.00;;;;;;5036356;28;20403;-85
2024/04/07 10:05:49;;;;;;;12.70;1.20;;;21.30;1.00;;;;;;5018704;28;20944;-85
2024/04/07 10:08:15;;;;;;;14.10;1.10;;;21.20;1.00;;;;;;5036154;28;20404;-85
2024/04/07 10:10:41;;;;;;;13.20;1.67;;;21.20;1.00;;;;;;5035528;28;20579;-85
2024/04/07 10:13:08;;;;;;;13.40;0.90;;;21.20;1.00;;;;;;5035020;28;20478;-85
2024/04/07 10:15:37;;;;;;;11.43;0.80;;;21.20;1.00;;;;;;5017292;28;20455;-85
2024/04/07 10:18:19;;;;;;;17.60;1.03;;;21.20;1.00;;;;;;5035035;28;20470;-85
2024/04/07 10:20:53;;;;;;;13.23;1.07;;;21.30;1.00;;;;;;5034364;28;20550;-85
2024/04/07 10:23:19;;;;;;;13.30;1.03;;;21.30;1.00;;;;;;5035227;28;20415;-85
2024/04/07 10:25:48;;;;;;;12.70;1.10;;;21.40;1.00;;;;;;5034292;28;20442;-85
2024/04/07 10:28:15;;;;;;;12.77;1.00;;;21.40;1.00;;;;;;5033666;28;20438;-86
2024/04/07 10:30:58;;;;;;;11.97;1.03;;;21.40;1.00;;;;;;5033890;28;20416;-86
2024/04/07 10:33:30;;;;;;;12.87;1.67;;;21.50;1.00;;;;;;5033178;28;20403;-86
2024/04/07 10:35:58;;;;;;;11.80;0.90;;;21.50;1.00;;;;;;5033314;28;20511;-85
2024/04/07 10:38:24;;;;;;;13.53;1.20;;;21.60;1.00;;;;;;5033849;28;20964;-85
2024/04/07 10:40:56;;;;;;;11.47;0.80;;;21.80;1.00;;;;;;5016172;28;20490;-85
2024/04/07 10:43:22;;;;;;;11.60;0.90;;;22.00;1.00;;;;;;5033920;28;20591;-85
2024/04/07 10:45:48;;;;;;;13.07;1.20;;;22.20;1.00;;;;;;5016821;28;20412;-85
2024/04/07 10:48:14;;;;;;;11.63;0.90;;;22.30;1.00;;;;;;5034100;28;20401;-85
2024/04/07 10:50:39;;;;;;;16.33;1.10;;;22.50;1.00;;;;;;5034532;28;20408;-85
2024/04/07 10:53:08;;;;;;;14.00;1.37;;;22.50;1.00;;;;;;5035091;28;20550;-85
2024/04/07 10:55:34;;;;;;;12.50;1.10;;;22.60;1.00;;;;;;5034832;28;20404;-85
2024/04/07 10:58:00;;;;;;;13.23;1.40;;;22.70;1.00;;;;;;5104518;23;20467;-85
2024/04/07 11:00:29;;;;;;;12.90;1.13;;;22.70;1.00;;;;;;4997357;28;20452;-85
2024/04/07 11:02:55;;;;;;;13.63;1.10;;;22.80;1.00;;;;;;4997390;28;20425;-85
2024/04/07 11:05:21;;;;;;;13.50;1.20;;;22.80;1.00;;;;;;4998026;28;20420;-85
2024/04/07 11:07:47;;;;;;;14.47;1.93;;;22.80;1.00;;;;;;4997545;28;20170;-85
2024/04/07 11:10:15;;;;;;;12.40;1.00;;;22.70;1.00;;;;;;5015420;28;20410;-85
2024/04/07 11:12:43;;;;;;;12.33;1.17;;;22.60;1.00;;;;;;5014990;28;20436;-85
2024/04/07 11:15:16;;;;;;;13.07;1.53;;;22.60;1.00;;;;;;5013828;28;20413;-85
2024/04/07 11:17:42;;;;;;;12.30;1.60;;;22.60;1.00;;;;;;4996809;28;20484;-85
2024/04/07 11:20:11;;;;;;;12.43;0.97;;;22.80;1.00;;;;;;5038223;23;20968;-87
2024/04/07 11:22:37;;;;;;;12.23;1.27;;;22.80;1.00;;;;;;5034180;28;20554;-86
2024/04/07 11:25:03;;;;;;;12.30;1.20;;;22.70;1.00;;;;;;5035034;28;20423;-87
2024/04/07 11:27:29;;;;;;;11.37;1.00;;;22.90;1.00;;;;;;5038427;28;20395;-87
2024/04/07 11:29:54;;;;;;;13.80;1.00;;;22.90;1.00;;;;;;5038345;28;20392;-86
2024/04/07 11:32:20;;;;;;;13.17;1.10;;;23.00;1.00;;;;;;5020405;28;20197;-87
2024/04/07 11:34:46;;;;;;;12.97;1.83;;;23.10;1.00;;;;;;5021522;28;20180;-86
2024/04/07 11:37:11;;;;;;;11.90;0.80;;;23.50;1.00;;;;;;5039215;28;20251;-86
2024/04/07 11:39:37;;;;;;;11.47;0.80;;;23.80;1.00;;;;;;5020523;28;20205;-87
2024/04/07 11:42:05;;;;;;;12.37;1.00;;;23.70;1.00;;;;;;5038583;28;20176;-86
2024/04/07 11:44:31;;;;;;;11.90;0.70;;;23.90;1.00;;;;;;5039336;28;20165;-86
2024/04/07 11:46:58;;;;;;;12.93;1.00;;;24.20;1.00;;;;;;5004689;28;20758;-86
2024/04/07 11:49:23;;;;;;;11.33;0.87;;;24.40;1.00;;;;;;5038391;28;20412;-86
2024/04/07 11:51:49;;;;;;;11.60;0.90;;;24.60;1.00;;;;;;5037087;28;20412;-86
2024/04/07 11:54:15;;;;;;;11.67;0.90;;;24.40;1.00;;;;;;5020026;28;20171;-87
2024/04/07 11:56:41;;;;;;;11.60;0.70;;;24.20;1.00;;;;;;5036604;28;20642;-86
2024/04/07 11:59:06;;;;;;;13.30;1.10;;;23.90;1.00;;;;;;5036113;28;20171;-87
2024/04/07 12:01:33;;;;;;;20.83;1.53;;;23.80;1.00;;;;;;5036009;28;20177;-86
2024/04/07 12:03:59;;;;;;;11.70;1.10;;;23.80;1.00;;;;;;5036051;28;20700;-86
2024/04/07 12:06:25;;;;;;;12.27;0.83;;;23.60;1.00;;;;;;5018480;28;20810;-86
2024/04/07 12:08:51;;;;;;;11.63;0.90;;;23.80;1.00;;;;;;5035974;28;20400;-86
2024/04/07 12:11:17;;;;;;;11.57;1.77;;;24.00;1.00;;;;;;5036026;28;20185;-87
2024/04/07 12:13:43;;;;;;;13.27;1.00;;;24.20;1.00;;;;;;5035641;28;20165;-87
2024/04/07 12:16:08;;;;;;;11.83;1.00;;;24.30;1.00;;;;;;5036118;28;20169;-86
2024/04/07 12:18:34;;;;;;;13.30;0.80;;;24.30;1.00;;;;;;5036275;28;20545;-86
2024/04/07 12:21:00;;;;;;;12.33;0.90;;;24.20;1.00;;;;;;5017805;28;20209;-86
2024/04/07 12:23:26;;;;;;;15.77;1.00;;;24.20;1.00;;;;;;5036029;28;20412;-86
2024/04/07 12:25:51;;;;;;;11.40;0.90;;;23.90;1.00;;;;;;5018020;28;20180;-87
2024/04/07 12:28:17;;;;;;;12.07;1.33;;;24.00;1.00;;;;;;5036082;28;20169;-87
2024/04/07 12:30:44;;;;;;;11.27;0.83;;;24.10;1.00;;;;;;5036087;28;20563;-87
2024/04/07 12:33:10;;;;;;;14.07;1.80;;;24.50;1.00;;;;;;5035940;28;20666;-86
2024/04/07 12:35:38;;;;;;;11.40;0.90;;;24.60;1.00;;;;;;5017896;28;20466;-87
2024/04/07 12:38:04;;;;;;;11.23;0.80;;;24.60;1.00;;;;;;5034782;28;20174;-86
2024/04/07 12:40:30;;;;;;;11.60;1.43;;;24.30;1.00;;;;;;5017613;28;20463;-86
2024/04/07 12:42:56;;;;;;;11.87;1.20;;;24.50;1.00;;;;;;5017711;28;20805;-87
2024/04/07 12:45:22;;;;;;;19.53;1.30;;;24.60;1.00;;;;;;5035407;28;20165;-87
2024/04/07 12:47:47;;;;;;;12.10;1.30;;;24.80;1.00;;;;;;5017842;28;20170;-87
2024/04/07 12:50:13;;;;;;;12.40;1.03;;;25.00;1.00;;;;;;5017631;28;20272;-87